createdAt,value
2022-11-22T00:01:06.062Z,39.08
2022-11-22T00:06:07.809Z,29.23
2022-11-22T00:08:39.109Z,63.30
2022-11-22T00:11:10.240Z,43.63
2022-11-22T00:13:41.580Z,30.10
2022-11-22T00:16:14.014Z,33.00
2022-11-22T00:18:46.108Z,34.00
2022-11-22T00:21:17.172Z,39.03
2022-11-22T00:23:48.301Z,29.52
2022-11-22T00:26:19.686Z,31.02
2022-11-22T00:28:51.177Z,31.13
2022-11-22T00:31:22.352Z,33.88
2022-11-22T00:33:53.471Z,41.93
2022-11-22T00:36:25.209Z,35.70
2022-11-22T00:41:27.031Z,38.90
2022-11-22T00:43:58.807Z,43.90
2022-11-22T00:46:29.983Z,33.63
2022-11-22T00:49:01.559Z,33.15
2022-11-22T00:51:32.775Z,38.08
2022-11-22T00:54:04.272Z,29.67
2022-11-22T00:56:35.712Z,28.27
2022-11-22T00:59:07.076Z,24.45
2022-11-22T01:01:38.201Z,22.13
2022-11-22T01:04:09.367Z,23.43
2022-11-22T01:06:40.634Z,25.63
2022-11-22T01:09:12.781Z,20.98
2022-11-22T01:14:16.111Z,24.05
2022-11-22T01:16:48.072Z,27.85
2022-11-22T01:19:19.222Z,25.92
2022-11-22T01:21:50.542Z,27.10
2022-11-22T01:24:21.678Z,25.80
2022-11-22T01:26:52.851Z,30.52
2022-11-22T01:29:24.525Z,25.67
2022-11-22T01:31:55.692Z,22.25
2022-11-22T01:34:27.420Z,20.80
2022-11-22T01:36:58.807Z,20.25
2022-11-22T01:42:01.404Z,37.05
2022-11-22T01:44:34.899Z,25.55
2022-11-22T01:47:23.258Z,23.08
2022-11-22T01:49:59.475Z,22.52
2022-11-22T01:52:34.577Z,23.95
2022-11-22T01:55:13.327Z,23.55
2022-11-22T01:57:46.691Z,26.67
2022-11-22T02:00:19.694Z,34.50
2022-11-22T02:02:58.149Z,25.30
2022-11-22T02:05:34.997Z,23.73
2022-11-22T02:08:29.789Z,20.40
2022-11-22T02:11:04.177Z,19.00
2022-11-22T02:13:40.916Z,21.17
2022-11-22T02:16:13.695Z,23.85
2022-11-22T02:18:45.151Z,21.25
2022-11-22T02:21:16.474Z,20.52
2022-11-22T02:24:07.062Z,17.90
2022-11-22T02:26:38.797Z,17.50
2022-11-22T02:29:10.614Z,19.65
2022-11-22T02:31:49.432Z,20.95
2022-11-22T02:34:20.537Z,15.95
2022-11-22T02:36:55.376Z,18.63
2022-11-22T02:39:33.020Z,18.08
2022-11-22T02:42:04.974Z,16.67
2022-11-22T02:44:36.665Z,17.03
2022-11-22T02:47:08.607Z,17.58
2022-11-22T02:49:39.685Z,18.05
2022-11-22T02:52:11.506Z,18.20
2022-11-22T02:54:42.576Z,17.90
2022-11-22T02:57:13.906Z,17.50
2022-11-22T02:59:45.571Z,16.33
2022-11-22T03:02:16.723Z,18.45
2022-11-22T03:04:49.253Z,14.90
2022-11-22T03:07:20.903Z,15.27
2022-11-22T03:09:52.186Z,21.33
2022-11-22T03:12:23.353Z,18.45
2022-11-22T03:14:54.893Z,18.27
2022-11-22T03:17:26.272Z,17.37
2022-11-22T03:19:57.325Z,23.05
2022-11-22T03:22:28.509Z,16.00
2022-11-22T03:24:59.700Z,15.83
2022-11-22T03:27:30.876Z,15.33
2022-11-22T03:30:02.230Z,16.47
2022-11-22T03:32:34.000Z,18.85
2022-11-22T03:35:06.051Z,17.60
2022-11-22T03:37:37.124Z,17.65
2022-11-22T03:40:09.011Z,18.17
2022-11-22T03:42:41.077Z,17.40
2022-11-22T03:45:12.632Z,16.55
2022-11-22T03:47:43.827Z,22.15
2022-11-22T03:50:14.988Z,20.47
2022-11-22T03:52:46.072Z,22.50
2022-11-22T03:55:17.291Z,20.77
2022-11-22T03:57:48.723Z,20.33
2022-11-22T04:00:20.574Z,19.80
2022-11-22T04:02:51.927Z,19.40
2022-11-22T04:05:23.800Z,19.65
2022-11-22T04:08:03.811Z,18.00
2022-11-22T04:10:34.968Z,20.27
2022-11-22T04:13:06.976Z,24.27
2022-11-22T04:15:39.406Z,18.30
2022-11-22T04:18:15.046Z,20.20
2022-11-22T04:21:04.426Z,18.25
2022-11-22T04:23:35.523Z,19.02
2022-11-22T04:26:06.720Z,19.17
2022-11-22T04:29:08.268Z,16.67
2022-11-22T04:31:47.318Z,18.27
2022-11-22T04:34:18.451Z,18.52
2022-11-22T04:36:50.040Z,14.80
2022-11-22T04:39:21.279Z,17.83
2022-11-22T04:42:16.070Z,16.48
2022-11-22T04:44:47.546Z,20.55
2022-11-22T04:47:38.309Z,16.20
2022-11-22T04:50:30.594Z,16.35
2022-11-22T04:53:01.798Z,15.43
2022-11-22T04:55:33.216Z,16.77
2022-11-22T04:58:04.834Z,18.95
2022-11-22T05:00:36.136Z,23.80
2022-11-22T05:03:07.805Z,18.17
2022-11-22T05:05:44.282Z,16.63
2022-11-22T05:08:16.199Z,17.75
2022-11-22T05:11:01.294Z,18.33
2022-11-22T05:13:41.473Z,17.15
2022-11-22T05:16:16.308Z,24.75
2022-11-22T05:19:00.400Z,24.73
2022-11-22T05:21:32.346Z,23.23
2022-11-22T05:24:04.264Z,15.55
2022-11-22T05:26:38.340Z,16.10
2022-11-22T05:29:11.881Z,15.25
2022-11-22T05:31:48.351Z,18.38
2022-11-22T05:34:22.317Z,20.95
2022-11-22T05:36:53.396Z,16.30
2022-11-22T05:39:24.441Z,21.23
2022-11-22T05:41:58.564Z,15.85
2022-11-22T05:44:29.899Z,16.98
2022-11-22T05:47:02.610Z,17.52
2022-11-22T05:49:34.698Z,18.17
2022-11-22T05:52:06.682Z,14.88
2022-11-22T05:57:08.583Z,17.90
2022-11-22T05:59:43.960Z,14.23
2022-11-22T06:02:15.748Z,14.85
2022-11-22T06:04:46.974Z,17.10
2022-11-22T06:07:18.624Z,14.88
2022-11-22T06:09:49.761Z,14.43
2022-11-22T06:12:21.000Z,14.23
2022-11-22T06:14:52.332Z,15.80
2022-11-22T06:17:23.836Z,17.27
2022-11-22T06:19:54.928Z,15.70
2022-11-22T06:22:25.965Z,16.48
2022-11-22T06:24:57.205Z,14.43
2022-11-22T06:27:29.365Z,18.02
2022-11-22T06:30:00.446Z,14.50
2022-11-22T06:32:35.445Z,17.00
2022-11-22T06:35:06.721Z,19.02
2022-11-22T06:37:37.945Z,17.13
2022-11-22T06:40:13.023Z,23.20
2022-11-22T06:42:44.148Z,25.77
2022-11-22T06:45:15.246Z,30.85
2022-11-22T06:47:46.554Z,19.08
2022-11-22T06:50:21.782Z,20.05
2022-11-22T06:52:56.657Z,20.38
2022-11-22T06:55:49.500Z,21.02
2022-11-22T06:58:19.114Z,18.60
2022-11-22T07:00:50.676Z,30.33
2022-11-22T07:03:21.984Z,26.52
2022-11-22T07:05:54.079Z,25.02
2022-11-22T07:08:25.892Z,24.40
2022-11-22T07:10:57.079Z,27.05
2022-11-22T07:13:28.543Z,22.00
2022-11-22T07:16:02.540Z,22.23
2022-11-22T07:18:34.409Z,31.10
2022-11-22T07:21:12.255Z,23.30
2022-11-22T07:23:45.531Z,20.67
2022-11-22T07:26:18.213Z,21.95
2022-11-22T07:28:50.826Z,20.33
2022-11-22T07:31:22.769Z,23.17
2022-11-22T07:36:24.744Z,21.75
2022-11-22T07:38:55.986Z,20.98
2022-11-22T07:41:27.433Z,22.97
2022-11-22T07:43:59.042Z,20.65
2022-11-22T07:46:32.837Z,21.37
2022-11-22T07:49:04.506Z,19.23
2022-11-22T07:51:35.931Z,15.40
2022-11-22T07:54:07.139Z,17.60
2022-11-22T07:56:38.330Z,14.07
2022-11-22T07:59:09.467Z,17.87
2022-11-22T08:01:40.648Z,14.90
2022-11-22T08:04:11.815Z,11.60
2022-11-22T08:06:43.045Z,10.37
2022-11-22T08:09:14.251Z,12.57
2022-11-22T08:11:45.520Z,12.67
2022-11-22T08:14:16.754Z,11.13
2022-11-22T08:16:48.208Z,10.47
2022-11-22T08:19:20.915Z,9.45
2022-11-22T08:21:58.140Z,9.40
2022-11-22T08:24:29.663Z,9.60
2022-11-22T08:27:00.710Z,8.93
2022-11-22T08:29:33.790Z,8.43
2022-11-22T08:32:04.879Z,8.75
2022-11-22T08:34:38.142Z,9.13
2022-11-22T08:37:10.038Z,10.60
2022-11-22T08:39:41.285Z,9.70
2022-11-22T08:42:12.946Z,9.10
2022-11-22T08:44:44.201Z,8.93
2022-11-22T08:47:15.220Z,10.67
2022-11-22T08:49:46.541Z,8.60
2022-11-22T08:52:17.681Z,8.30
2022-11-22T08:54:51.952Z,8.20
2022-11-22T08:57:23.112Z,6.72
2022-11-22T08:59:54.412Z,7.70
2022-11-22T09:02:25.854Z,8.65
2022-11-22T09:04:56.940Z,7.43
2022-11-22T09:10:19.066Z,6.60
2022-11-22T09:12:50.508Z,6.67
2022-11-22T09:15:21.577Z,6.93
2022-11-22T09:17:53.044Z,16.95
2022-11-22T09:20:24.482Z,11.25
2022-11-22T09:22:55.809Z,6.63
2022-11-22T09:25:26.999Z,5.88
2022-11-22T09:28:01.449Z,6.40
2022-11-22T09:30:33.526Z,10.95
2022-11-22T09:33:05.457Z,6.75
2022-11-22T09:35:36.635Z,5.57
2022-11-22T09:38:09.849Z,6.00
2022-11-22T09:40:41.008Z,7.40
2022-11-22T09:43:53.568Z,15.30
2022-11-22T09:46:34.218Z,8.23
2022-11-22T09:49:29.078Z,5.70
2022-11-22T09:52:22.793Z,5.13
2022-11-22T09:54:59.585Z,6.15
2022-11-22T09:57:49.609Z,6.45
2022-11-22T10:00:29.266Z,14.48
2022-11-22T10:03:12.256Z,8.40
2022-11-22T10:06:00.015Z,6.32
2022-11-22T10:08:49.382Z,6.10
2022-11-22T10:11:59.209Z,10.90
2022-11-22T10:14:46.443Z,6.90
2022-11-22T10:17:20.190Z,6.38
2022-11-22T10:20:05.654Z,11.43
2022-11-22T10:22:37.531Z,9.45
2022-11-22T10:25:34.428Z,11.30
2022-11-22T10:28:41.141Z,6.18
2022-11-22T10:31:25.173Z,6.45
2022-11-22T10:33:57.452Z,17.30
2022-11-22T10:36:38.580Z,6.35
2022-11-22T10:39:32.967Z,10.40
2022-11-22T10:42:21.397Z,10.40
2022-11-22T10:45:37.767Z,8.13
2022-11-22T10:48:18.008Z,9.82
2022-11-22T10:50:55.090Z,6.00
2022-11-22T10:53:51.464Z,5.85
2022-11-22T10:56:43.670Z,7.32
2022-11-22T10:59:48.639Z,8.50
2022-11-22T11:02:55.294Z,6.40
2022-11-22T11:05:37.441Z,4.60
2022-11-22T11:11:04.519Z,4.38
2022-11-22T11:13:46.258Z,6.30
2022-11-22T11:16:24.921Z,4.47
2022-11-22T11:19:14.651Z,6.78
2022-11-22T11:21:47.171Z,4.63
2022-11-22T11:24:19.094Z,5.22
2022-11-22T11:26:59.019Z,4.68
2022-11-22T11:29:49.878Z,4.28
2022-11-22T11:32:22.766Z,4.10
2022-11-22T11:35:06.004Z,4.22
2022-11-22T11:37:39.207Z,4.68
2022-11-22T11:40:34.556Z,6.22
2022-11-22T11:43:21.671Z,6.65
2022-11-22T11:45:53.670Z,7.20
2022-11-22T11:48:30.378Z,6.68
2022-11-22T11:51:18.712Z,6.78
2022-11-22T11:53:58.632Z,7.75
2022-11-22T11:56:35.376Z,6.90
2022-11-22T11:59:13.863Z,6.75
2022-11-22T12:02:07.070Z,6.32
2022-11-22T12:04:49.983Z,11.32
2022-11-22T12:07:32.361Z,11.45
2022-11-22T12:10:24.872Z,10.23
2022-11-22T12:13:04.205Z,7.53
2022-11-22T12:15:47.941Z,7.53
2022-11-22T12:18:37.339Z,8.48
2022-11-22T12:21:28.425Z,8.48
2022-11-22T12:25:02.866Z,12.25
2022-11-22T12:27:18.288Z,7.78
2022-11-22T12:29:49.798Z,9.90
2022-11-22T12:32:59.954Z,7.32
2022-11-22T12:35:43.075Z,7.25
2022-11-22T12:38:25.300Z,9.45
2022-11-22T12:41:02.354Z,9.98
2022-11-22T12:43:49.399Z,7.72
2022-11-22T12:46:46.128Z,7.05
2022-11-22T12:49:31.903Z,6.85
2022-11-22T12:52:44.956Z,6.28
2022-11-22T12:55:36.916Z,10.75
2022-11-22T12:58:37.219Z,7.20
2022-11-22T13:01:22.755Z,7.25
2022-11-22T13:04:06.339Z,7.03
2022-11-22T13:06:59.502Z,6.15
2022-11-22T13:09:37.444Z,6.97
2022-11-22T13:12:14.127Z,6.97
2022-11-22T13:14:51.453Z,7.03
2022-11-22T13:17:24.761Z,6.35
2022-11-22T13:20:11.519Z,6.35
2022-11-22T13:22:58.701Z,6.30
2022-11-22T13:25:39.154Z,6.85
2022-11-22T13:28:20.543Z,7.82
2022-11-22T13:31:12.177Z,6.28
2022-11-22T13:33:56.543Z,8.25
2022-11-22T13:36:34.073Z,6.20
2022-11-22T13:39:14.237Z,7.30
2022-11-22T13:42:04.817Z,6.15
2022-11-22T13:44:40.745Z,10.10
2022-11-22T13:47:15.147Z,6.15
2022-11-22T13:49:50.271Z,5.60
2022-11-22T13:52:22.235Z,9.18
2022-11-22T13:54:58.510Z,11.57
2022-11-22T13:57:37.068Z,5.32
2022-11-22T14:00:17.274Z,6.07
2022-11-22T14:03:15.250Z,5.03
2022-11-22T14:05:51.520Z,15.38
2022-11-22T14:08:45.519Z,4.93
2022-11-22T14:11:22.745Z,15.63
2022-11-22T14:14:23.665Z,6.68
2022-11-22T14:17:07.651Z,5.97
2022-11-22T14:19:58.774Z,6.22
2022-11-22T14:22:46.214Z,4.28
2022-11-22T14:25:53.387Z,7.95
2022-11-22T14:28:34.000Z,5.60
2022-11-22T14:31:35.357Z,3.40
2022-11-22T14:34:23.083Z,3.75
2022-11-22T14:37:12.618Z,3.00
2022-11-22T14:39:54.689Z,5.70
2022-11-22T14:42:38.403Z,4.55
2022-11-22T14:45:12.836Z,4.93
2022-11-22T14:47:53.883Z,3.15
2022-11-22T14:50:39.375Z,5.95
2022-11-22T14:53:22.576Z,4.65
2022-11-22T14:56:05.472Z,2.92
2022-11-22T14:58:45.807Z,3.47
2022-11-22T15:01:41.708Z,2.78
2022-11-22T15:09:17.860Z,2.70
2022-11-22T15:10:42.628Z,2.20
2022-11-22T15:13:33.385Z,2.78
2022-11-22T15:59:48.415Z,2.47
2022-11-22T16:02:24.087Z,3.83
2022-11-22T16:06:07.663Z,3.15
2022-11-22T16:07:51.174Z,8.50
2022-11-22T16:10:34.626Z,2.45
2022-11-22T16:13:23.764Z,2.40
2022-11-22T16:16:13.067Z,4.75
2022-11-22T16:18:45.617Z,2.45
2022-11-22T16:21:24.034Z,3.55
2022-11-22T16:24:18.065Z,2.60
2022-11-22T16:26:58.063Z,2.75
2022-11-22T16:29:33.485Z,2.92
2022-11-22T16:32:13.786Z,3.35
2022-11-22T16:34:46.922Z,2.95
2022-11-22T16:37:41.373Z,6.82
2022-11-22T16:40:16.592Z,2.03
2022-11-22T16:42:47.754Z,2.78
2022-11-22T16:45:22.273Z,5.13
2022-11-22T16:48:24.114Z,1.85
2022-11-22T16:50:47.849Z,2.20
2022-11-22T16:53:27.501Z,4.65
2022-11-22T16:55:58.594Z,2.33
2022-11-22T16:58:31.178Z,1.98
2022-11-22T17:01:04.464Z,2.00
2022-11-22T17:03:40.378Z,1.88
2022-11-22T17:06:23.854Z,5.63
2022-11-22T17:08:57.180Z,1.85
2022-11-22T17:11:31.493Z,1.95
2022-11-22T17:14:02.790Z,5.90
2022-11-22T17:16:34.007Z,4.43
2022-11-22T17:19:05.557Z,5.80
2022-11-22T17:24:20.704Z,3.63
2022-11-22T17:26:51.884Z,5.72
2022-11-22T17:32:15.180Z,2.17
2022-11-22T17:34:46.265Z,4.20
2022-11-22T17:37:17.328Z,2.35
2022-11-22T17:39:52.465Z,2.67
2022-11-22T17:42:25.428Z,2.40
2022-11-22T17:44:56.542Z,1.77
2022-11-22T17:47:29.014Z,1.77
2022-11-22T17:50:00.144Z,2.42
2022-11-22T17:52:31.576Z,1.97
2022-11-22T17:55:06.185Z,2.88
2022-11-22T17:57:39.462Z,1.75
2022-11-22T18:00:11.450Z,3.23
2022-11-22T18:02:43.404Z,2.58
2022-11-22T18:05:15.025Z,3.10
2022-11-22T18:07:46.231Z,3.22
2022-11-22T18:10:17.430Z,2.73
2022-11-22T18:13:13.455Z,7.22
2022-11-22T18:15:40.634Z,1.70
2022-11-22T18:21:02.143Z,2.58
2022-11-22T18:23:38.568Z,1.83
2022-11-22T18:31:54.903Z,2.30
2022-11-22T18:34:26.566Z,1.75
2022-11-22T18:37:03.189Z,3.95
2022-11-22T18:39:40.228Z,2.33
2022-11-22T18:42:16.346Z,1.88
2022-11-22T18:44:47.492Z,4.45
2022-11-22T18:47:18.634Z,3.25
2022-11-22T18:49:49.879Z,5.20
2022-11-22T18:52:24.383Z,1.83
2022-11-22T18:54:57.623Z,2.35
2022-11-22T18:57:29.259Z,1.95
2022-11-22T19:00:00.590Z,7.93
2022-11-22T19:02:31.905Z,5.00
2022-11-22T19:05:03.498Z,3.88
2022-11-22T19:07:34.620Z,3.00
2022-11-22T19:10:06.314Z,1.85
2022-11-22T19:12:38.392Z,6.00
2022-11-22T19:15:10.132Z,2.65
2022-11-22T19:17:41.897Z,1.95
2022-11-22T19:20:39.386Z,2.25
2022-11-22T19:23:06.387Z,2.07
2022-11-22T19:28:08.227Z,3.00
2022-11-22T19:30:42.918Z,2.72
2022-11-22T19:33:17.047Z,2.25
2022-11-22T19:36:02.617Z,2.47
2022-11-22T19:38:34.081Z,2.40
2022-11-22T19:41:10.434Z,2.33
2022-11-22T19:43:41.824Z,5.82
2022-11-22T19:46:14.176Z,1.67
2022-11-22T19:51:18.710Z,2.00
2022-11-22T19:53:50.672Z,2.33
2022-11-22T19:56:22.873Z,2.25
2022-11-22T19:58:56.283Z,2.33
2022-11-22T20:01:29.418Z,1.98
2022-11-22T20:04:05.003Z,2.15
2022-11-22T20:06:37.838Z,2.30
2022-11-22T20:09:12.465Z,2.20
2022-11-22T20:11:45.721Z,1.90
2022-11-22T20:14:16.789Z,1.60
2022-11-22T20:16:47.930Z,3.60
2022-11-22T20:19:19.071Z,1.70
2022-11-22T20:21:51.113Z,1.40
2022-11-22T20:24:22.631Z,4.70
2022-11-22T20:26:53.681Z,1.50
2022-11-22T20:29:26.463Z,1.40
2022-11-22T20:31:58.196Z,2.13
2022-11-22T20:34:34.451Z,3.08
2022-11-22T20:37:05.667Z,1.77
2022-11-22T20:39:38.501Z,1.80
2022-11-22T20:42:33.785Z,1.65
2022-11-22T20:45:01.423Z,1.83
2022-11-22T20:47:33.369Z,3.63
2022-11-22T20:50:05.015Z,8.77
2022-11-22T20:52:36.268Z,1.98
2022-11-22T20:55:07.786Z,3.00
2022-11-22T20:57:39.872Z,4.25
2022-11-22T21:00:12.457Z,2.15
2022-11-22T21:02:43.570Z,1.50
2022-11-22T21:05:14.849Z,1.52
2022-11-22T21:07:46.609Z,1.70
2022-11-22T21:10:17.905Z,1.60
2022-11-22T21:12:48.949Z,1.77
2022-11-22T21:15:20.507Z,1.80
2022-11-22T21:18:23.206Z,2.80
2022-11-22T21:20:42.925Z,1.50
2022-11-22T21:23:15.107Z,1.63
2022-11-22T21:25:46.213Z,1.80
2022-11-22T21:28:17.426Z,2.85
2022-11-22T21:30:48.518Z,3.40
2022-11-22T21:33:19.596Z,1.90
2022-11-22T21:35:50.895Z,2.42
2022-11-22T21:38:30.982Z,1.77
2022-11-22T21:41:24.383Z,4.72
2022-11-22T21:46:26.863Z,6.65
2022-11-22T21:51:29.535Z,1.63
2022-11-22T21:54:05.114Z,1.73
2022-11-22T21:56:36.888Z,2.20
2022-11-22T21:59:08.086Z,2.10
2022-11-22T22:01:39.253Z,2.17
2022-11-22T22:04:10.384Z,1.70
2022-11-22T22:06:45.818Z,1.95
2022-11-22T22:09:17.242Z,2.15
2022-11-22T22:11:49.442Z,1.88
2022-11-22T22:14:20.735Z,2.38
2022-11-22T22:16:52.750Z,1.85
2022-11-22T22:19:23.861Z,3.87
2022-11-22T22:21:55.122Z,1.73
2022-11-22T22:24:26.804Z,1.75
2022-11-22T22:26:57.992Z,2.17
2022-11-22T22:29:29.529Z,6.40
2022-11-22T22:32:01.917Z,2.07
2022-11-22T22:34:37.595Z,2.40
2022-11-22T22:37:08.661Z,1.90
2022-11-22T22:39:39.919Z,2.08
2022-11-22T22:42:11.424Z,1.90
2022-11-22T22:44:42.630Z,3.28
2022-11-22T22:47:14.169Z,2.20
2022-11-22T22:49:45.287Z,2.00
2022-11-22T22:52:16.598Z,1.83
2022-11-22T22:54:47.739Z,1.93
2022-11-22T22:57:18.870Z,4.30
2022-11-22T22:59:49.882Z,1.92
2022-11-22T23:02:21.086Z,2.40
2022-11-22T23:04:52.524Z,2.85
2022-11-22T23:07:23.813Z,2.25
2022-11-22T23:09:55.355Z,7.53
2022-11-22T23:12:26.384Z,2.40
2022-11-22T23:14:57.493Z,2.20
2022-11-22T23:17:28.815Z,2.95
2022-11-22T23:20:00.428Z,5.70
2022-11-22T23:22:31.871Z,3.42
2022-11-22T23:25:03.192Z,4.87
2022-11-22T23:27:34.634Z,3.65
2022-11-22T23:30:06.758Z,15.32
2022-11-22T23:32:38.302Z,13.80
2022-11-22T23:35:09.918Z,8.82
2022-11-22T23:37:41.441Z,9.38
2022-11-22T23:40:13.161Z,26.23
2022-11-22T23:42:44.270Z,37.75
2022-11-22T23:45:15.477Z,27.80
2022-11-22T23:47:46.722Z,34.70
2022-11-22T23:50:18.238Z,35.25
2022-11-22T23:52:49.677Z,23.00
2022-11-22T23:55:20.965Z,25.00
2022-11-22T23:57:52.654Z,11.63
